sensor_id;sensor_type;location;lat;lon;timestamp;temperature;humidity
78571;SHT31;67861;51.966;5.672;2023-03-23T00:01:20;14.7;66.9
78571;SHT31;67861;51.966;5.672;2023-03-23T00:03:53;14.7;66.9
78571;SHT31;67861;51.966;5.672;2023-03-23T00:06:27;14.7;66.8
78571;SHT31;67861;51.966;5.672;2023-03-23T00:09:02;14.7;66.6
78571;SHT31;67861;51.966;5.672;2023-03-23T00:11:32;14.7;66.7
78571;SHT31;67861;51.966;5.672;2023-03-23T00:14:02;14.7;66.5
78571;SHT31;67861;51.966;5.672;2023-03-23T00:16:33;14.7;66.6
78571;SHT31;67861;51.966;5.672;2023-03-23T00:19:09;14.7;66.6
78571;SHT31;67861;51.966;5.672;2023-03-23T00:21:42;14.7;66.3
78571;SHT31;67861;51.966;5.672;2023-03-23T00:24:16;14.7;66.3
78571;SHT31;67861;51.966;5.672;2023-03-23T00:26:48;14.7;66.2
78571;SHT31;67861;51.966;5.672;2023-03-23T00:29:20;14.7;66.2
78571;SHT31;67861;51.966;5.672;2023-03-23T00:31:50;14.7;66.3
78571;SHT31;67861;51.966;5.672;2023-03-23T00:34:22;14.7;66.2
78571;SHT31;67861;51.966;5.672;2023-03-23T00:37:02;14.7;66.2
78571;SHT31;67861;51.966;5.672;2023-03-23T00:39:35;14.7;66.2
78571;SHT31;67861;51.966;5.672;2023-03-23T00:42:15;14.7;66.2
78571;SHT31;67861;51.966;5.672;2023-03-23T00:44:45;14.7;66.2
78571;SHT31;67861;51.966;5.672;2023-03-23T00:47:16;14.8;66.4
78571;SHT31;67861;51.966;5.672;2023-03-23T00:49:45;14.8;66.6
78571;SHT31;67861;51.966;5.672;2023-03-23T00:52:19;14.8;66.5
78571;SHT31;67861;51.966;5.672;2023-03-23T00:54:49;14.8;66.6
78571;SHT31;67861;51.966;5.672;2023-03-23T00:57:18;14.8;66.8
78571;SHT31;67861;51.966;5.672;2023-03-23T00:59:51;14.8;66.6
78571;SHT31;67861;51.966;5.672;2023-03-23T01:02:21;14.8;66.5
78571;SHT31;67861;51.966;5.672;2023-03-23T01:04:52;14.8;66.6
78571;SHT31;67861;51.966;5.672;2023-03-23T01:07:21;14.8;66.3
78571;SHT31;67861;51.966;5.672;2023-03-23T01:09:51;14.8;66.0
78571;SHT31;67861;51.966;5.672;2023-03-23T01:12:21;14.7;66.0
78571;SHT31;67861;51.966;5.672;2023-03-23T01:14:52;14.7;66.2
78571;SHT31;67861;51.966;5.672;2023-03-23T01:17:22;14.7;66.3
78571;SHT31;67861;51.966;5.672;2023-03-23T01:19:51;14.7;65.8
78571;SHT31;67861;51.966;5.672;2023-03-23T01:22:21;14.7;65.7
78571;SHT31;67861;51.966;5.672;2023-03-23T01:24:50;14.7;66.0
78571;SHT31;67861;51.966;5.672;2023-03-23T01:27:20;14.7;65.9
78571;SHT31;67861;51.966;5.672;2023-03-23T01:29:50;14.7;66.0
78571;SHT31;67861;51.966;5.672;2023-03-23T01:32:21;14.6;66.1
78571;SHT31;67861;51.966;5.672;2023-03-23T01:34:51;14.6;66.2
78571;SHT31;67861;51.966;5.672;2023-03-23T01:37:21;14.6;66.3
78571;SHT31;67861;51.966;5.672;2023-03-23T01:39:56;14.6;66.1
78571;SHT31;67861;51.966;5.672;2023-03-23T01:42:31;14.6;66.3
78571;SHT31;67861;51.966;5.672;2023-03-23T01:46:01;14.6;66.2
78571;SHT31;67861;51.966;5.672;2023-03-23T01:48:34;14.7;65.9
78571;SHT31;67861;51.966;5.672;2023-03-23T01:51:09;14.7;65.8
78571;SHT31;67861;51.966;5.672;2023-03-23T01:53:43;14.7;65.8
78571;SHT31;67861;51.966;5.672;2023-03-23T01:56:17;14.7;65.6
78571;SHT31;67861;51.966;5.672;2023-03-23T01:58:53;14.7;65.6
78571;SHT31;67861;51.966;5.672;2023-03-23T02:01:25;14.7;65.7
78571;SHT31;67861;51.966;5.672;2023-03-23T02:03:56;14.7;65.6
78571;SHT31;67861;51.966;5.672;2023-03-23T02:06:26;14.7;65.8
78571;SHT31;67861;51.966;5.672;2023-03-23T02:08:58;14.7;66.0
78571;SHT31;67861;51.966;5.672;2023-03-23T02:11:28;14.7;66.0
78571;SHT31;67861;51.966;5.672;2023-03-23T02:13:59;14.7;66.1
78571;SHT31;67861;51.966;5.672;2023-03-23T02:16:34;14.7;66.0
78571;SHT31;67861;51.966;5.672;2023-03-23T02:19:33;14.7;66.1
78571;SHT31;67861;51.966;5.672;2023-03-23T02:24:09;14.7;66.2
78571;SHT31;67861;51.966;5.672;2023-03-23T02:26:53;14.7;66.2
78571;SHT31;67861;51.966;5.672;2023-03-23T02:29:39;14.7;66.2
78571;SHT31;67861;51.966;5.672;2023-03-23T02:32:20;14.7;66.2
78571;SHT31;67861;51.966;5.672;2023-03-23T02:34:58;14.7;66.2
78571;SHT31;67861;51.966;5.672;2023-03-23T02:37:32;14.7;66.2
78571;SHT31;67861;51.966;5.672;2023-03-23T02:40:09;14.7;66.2
78571;SHT31;67861;51.966;5.672;2023-03-23T02:42:45;14.8;66.3
78571;SHT31;67861;51.966;5.672;2023-03-23T02:45:20;14.8;66.2
78571;SHT31;67861;51.966;5.672;2023-03-23T02:47:53;14.8;66.3
78571;SHT31;67861;51.966;5.672;2023-03-23T02:50:27;14.8;66.3
78571;SHT31;67861;51.966;5.672;2023-03-23T02:53:00;14.8;66.2
78571;SHT31;67861;51.966;5.672;2023-03-23T02:55:31;14.8;66.2
78571;SHT31;67861;51.966;5.672;2023-03-23T02:58:02;14.8;66.2
78571;SHT31;67861;51.966;5.672;2023-03-23T03:00:32;14.8;66.2
78571;SHT31;67861;51.966;5.672;2023-03-23T03:03:04;14.8;66.1
78571;SHT31;67861;51.966;5.672;2023-03-23T03:05:40;14.8;66.0
78571;SHT31;67861;51.966;5.672;2023-03-23T03:08:20;14.9;65.9
78571;SHT31;67861;51.966;5.672;2023-03-23T03:10:58;14.9;65.8
78571;SHT31;67861;51.966;5.672;2023-03-23T03:13:42;14.9;65.5
78571;SHT31;67861;51.966;5.672;2023-03-23T03:16:27;14.9;65.3
78571;SHT31;67861;51.966;5.672;2023-03-23T03:19:04;14.9;65.1
78571;SHT31;67861;51.966;5.672;2023-03-23T03:21:38;14.9;64.9
78571;SHT31;67861;51.966;5.672;2023-03-23T03:24:15;14.9;64.9
78571;SHT31;67861;51.966;5.672;2023-03-23T03:26:47;14.9;64.9
78571;SHT31;67861;51.966;5.672;2023-03-23T03:29:21;14.9;64.9
78571;SHT31;67861;51.966;5.672;2023-03-23T03:31:53;14.9;64.7
78571;SHT31;67861;51.966;5.672;2023-03-23T03:34:25;15.0;64.9
78571;SHT31;67861;51.966;5.672;2023-03-23T03:36:57;15.0;64.8
78571;SHT31;67861;51.966;5.672;2023-03-23T03:39:28;15.0;64.5
78571;SHT31;67861;51.966;5.672;2023-03-23T03:41:57;15.0;64.3
78571;SHT31;67861;51.966;5.672;2023-03-23T03:44:27;15.0;64.4
78571;SHT31;67861;51.966;5.672;2023-03-23T03:46:58;15.0;64.5
78571;SHT31;67861;51.966;5.672;2023-03-23T03:49:27;15.0;64.4
78571;SHT31;67861;51.966;5.672;2023-03-23T03:51:58;15.1;64.3
78571;SHT31;67861;51.966;5.672;2023-03-23T03:54:27;15.1;64.3
78571;SHT31;67861;51.966;5.672;2023-03-23T03:56:57;15.1;64.3
78571;SHT31;67861;51.966;5.672;2023-03-23T03:59:27;15.1;64.2
78571;SHT31;67861;51.966;5.672;2023-03-23T04:01:58;15.1;64.1
78571;SHT31;67861;51.966;5.672;2023-03-23T04:04:29;15.1;64.2
78571;SHT31;67861;51.966;5.672;2023-03-23T04:06:59;15.1;64.1
78571;SHT31;67861;51.966;5.672;2023-03-23T04:09:29;15.1;63.8
78571;SHT31;67861;51.966;5.672;2023-03-23T04:11:59;15.1;63.7
78571;SHT31;67861;51.966;5.672;2023-03-23T04:14:28;15.1;63.6
78571;SHT31;67861;51.966;5.672;2023-03-23T04:16:58;15.1;63.7
78571;SHT31;67861;51.966;5.672;2023-03-23T04:19:28;15.1;63.6
78571;SHT31;67861;51.966;5.672;2023-03-23T04:22:00;15.1;63.5
78571;SHT31;67861;51.966;5.672;2023-03-23T04:24:30;15.1;63.5
78571;SHT31;67861;51.966;5.672;2023-03-23T04:27:01;15.1;63.3
78571;SHT31;67861;51.966;5.672;2023-03-23T04:29:31;15.1;63.4
78571;SHT31;67861;51.966;5.672;2023-03-23T04:32:01;15.1;63.3
78571;SHT31;67861;51.966;5.672;2023-03-23T04:34:32;15.1;63.0
78571;SHT31;67861;51.966;5.672;2023-03-23T04:37:02;15.2;63.2
78571;SHT31;67861;51.966;5.672;2023-03-23T04:39:32;15.2;63.2
78571;SHT31;67861;51.966;5.672;2023-03-23T04:42:02;15.2;62.9
78571;SHT31;67861;51.966;5.672;2023-03-23T04:44:32;15.2;62.7
78571;SHT31;67861;51.966;5.672;2023-03-23T04:47:02;15.2;62.9
78571;SHT31;67861;51.966;5.672;2023-03-23T04:49:34;15.2;62.8
78571;SHT31;67861;51.966;5.672;2023-03-23T04:52:04;15.2;62.7
78571;SHT31;67861;51.966;5.672;2023-03-23T04:54:34;15.2;62.5
78571;SHT31;67861;51.966;5.672;2023-03-23T04:57:04;15.2;62.4
78571;SHT31;67861;51.966;5.672;2023-03-23T04:59:35;15.2;62.4
78571;SHT31;67861;51.966;5.672;2023-03-23T05:02:05;15.2;62.3
78571;SHT31;67861;51.966;5.672;2023-03-23T05:04:35;15.1;62.2
78571;SHT31;67861;51.966;5.672;2023-03-23T05:07:08;15.1;62.1
78571;SHT31;67861;51.966;5.672;2023-03-23T05:09:41;15.1;62.0
78571;SHT31;67861;51.966;5.672;2023-03-23T05:12:12;15.1;62.2
78571;SHT31;67861;51.966;5.672;2023-03-23T05:14:45;15.1;62.1
78571;SHT31;67861;51.966;5.672;2023-03-23T05:17:18;15.1;62.4
78571;SHT31;67861;51.966;5.672;2023-03-23T05:19:47;15.1;62.2
78571;SHT31;67861;51.966;5.672;2023-03-23T05:22:17;15.1;61.9
78571;SHT31;67861;51.966;5.672;2023-03-23T05:24:48;15.2;62.1
78571;SHT31;67861;51.966;5.672;2023-03-23T05:27:19;15.2;61.9
78571;SHT31;67861;51.966;5.672;2023-03-23T05:29:49;15.2;61.9
78571;SHT31;67861;51.966;5.672;2023-03-23T05:32:20;15.2;61.9
78571;SHT31;67861;51.966;5.672;2023-03-23T05:34:55;15.2;61.8
78571;SHT31;67861;51.966;5.672;2023-03-23T05:37:26;15.2;61.8
78571;SHT31;67861;51.966;5.672;2023-03-23T05:40:00;15.2;61.8
78571;SHT31;67861;51.966;5.672;2023-03-23T05:42:34;15.2;61.9
78571;SHT31;67861;51.966;5.672;2023-03-23T05:45:05;15.2;61.9
78571;SHT31;67861;51.966;5.672;2023-03-23T05:47:36;15.2;61.7
78571;SHT31;67861;51.966;5.672;2023-03-23T05:50:08;15.2;61.9
78571;SHT31;67861;51.966;5.672;2023-03-23T05:52:39;15.2;61.9
78571;SHT31;67861;51.966;5.672;2023-03-23T05:55:10;15.2;61.9
78571;SHT31;67861;51.966;5.672;2023-03-23T05:57:45;15.2;61.8
78571;SHT31;67861;51.966;5.672;2023-03-23T06:00:18;15.2;62.0
78571;SHT31;67861;51.966;5.672;2023-03-23T06:02:54;15.2;61.9
78571;SHT31;67861;51.966;5.672;2023-03-23T06:05:24;15.1;62.1
78571;SHT31;67861;51.966;5.672;2023-03-23T06:07:54;15.1;61.9
78571;SHT31;67861;51.966;5.672;2023-03-23T06:10:24;15.1;62.2
78571;SHT31;67861;51.966;5.672;2023-03-23T06:12:54;15.1;62.0
78571;SHT31;67861;51.966;5.672;2023-03-23T06:15:24;15.1;62.3
78571;SHT31;67861;51.966;5.672;2023-03-23T06:17:58;15.1;62.3
78571;SHT31;67861;51.966;5.672;2023-03-23T06:20:31;15.2;62.3
78571;SHT31;67861;51.966;5.672;2023-03-23T06:23:04;15.2;62.3
78571;SHT31;67861;51.966;5.672;2023-03-23T06:25:36;15.2;62.3
78571;SHT31;67861;51.966;5.672;2023-03-23T06:28:06;15.2;62.1
78571;SHT31;67861;51.966;5.672;2023-03-23T06:30:37;15.2;62.2
78571;SHT31;67861;51.966;5.672;2023-03-23T06:33:08;15.2;62.2
78571;SHT31;67861;51.966;5.672;2023-03-23T06:35:41;15.2;62.3
78571;SHT31;67861;51.966;5.672;2023-03-23T06:38:11;15.2;62.2
78571;SHT31;67861;51.966;5.672;2023-03-23T06:40:40;15.2;62.1
78571;SHT31;67861;51.966;5.672;2023-03-23T06:43:14;15.2;62.4
78571;SHT31;67861;51.966;5.672;2023-03-23T06:45:44;15.2;62.3
78571;SHT31;67861;51.966;5.672;2023-03-23T06:48:14;15.2;62.3
78571;SHT31;67861;51.966;5.672;2023-03-23T06:50:46;15.2;62.3
78571;SHT31;67861;51.966;5.672;2023-03-23T06:53:16;15.2;62.1
78571;SHT31;67861;51.966;5.672;2023-03-23T06:55:50;15.2;62.1
78571;SHT31;67861;51.966;5.672;2023-03-23T06:58:20;15.2;62.0
78571;SHT31;67861;51.966;5.672;2023-03-23T07:00:55;15.2;62.3
78571;SHT31;67861;51.966;5.672;2023-03-23T07:03:27;15.3;62.3
78571;SHT31;67861;51.966;5.672;2023-03-23T07:05:58;15.3;62.6
78571;SHT31;67861;51.966;5.672;2023-03-23T07:08:28;15.3;62.3
78571;SHT31;67861;51.966;5.672;2023-03-23T07:10:58;15.3;62.0
78571;SHT31;67861;51.966;5.672;2023-03-23T07:13:28;15.3;62.3
78571;SHT31;67861;51.966;5.672;2023-03-23T07:15:58;15.3;62.4
78571;SHT31;67861;51.966;5.672;2023-03-23T07:18:28;15.3;62.4
78571;SHT31;67861;51.966;5.672;2023-03-23T07:20:58;15.3;62.8
78571;SHT31;67861;51.966;5.672;2023-03-23T07:23:31;15.3;62.7
78571;SHT31;67861;51.966;5.672;2023-03-23T07:26:01;15.3;62.8
78571;SHT31;67861;51.966;5.672;2023-03-23T07:28:31;15.4;62.6
78571;SHT31;67861;51.966;5.672;2023-03-23T07:31:01;15.4;62.7
78571;SHT31;67861;51.966;5.672;2023-03-23T07:33:32;15.4;62.6
78571;SHT31;67861;51.966;5.672;2023-03-23T07:36:03;15.4;62.4
78571;SHT31;67861;51.966;5.672;2023-03-23T07:38:36;15.4;62.3
78571;SHT31;67861;51.966;5.672;2023-03-23T07:41:06;15.4;62.0
78571;SHT31;67861;51.966;5.672;2023-03-23T07:43:35;15.4;61.7
78571;SHT31;67861;51.966;5.672;2023-03-23T07:46:05;15.4;61.4
78571;SHT31;67861;51.966;5.672;2023-03-23T07:48:35;15.4;61.7
78571;SHT31;67861;51.966;5.672;2023-03-23T07:51:06;15.4;62.1
78571;SHT31;67861;51.966;5.672;2023-03-23T07:53:36;15.4;62.1
78571;SHT31;67861;51.966;5.672;2023-03-23T07:56:07;15.5;62.4
78571;SHT31;67861;51.966;5.672;2023-03-23T07:58:37;15.4;62.7
78571;SHT31;67861;51.966;5.672;2023-03-23T08:01:07;15.4;63.0
78571;SHT31;67861;51.966;5.672;2023-03-23T08:03:37;15.4;63.0
78571;SHT31;67861;51.966;5.672;2023-03-23T08:06:09;15.4;63.3
78571;SHT31;67861;51.966;5.672;2023-03-23T08:08:39;15.4;63.7
78571;SHT31;67861;51.966;5.672;2023-03-23T08:11:09;15.4;64.1
78571;SHT31;67861;51.966;5.672;2023-03-23T08:13:38;15.4;64.2
78571;SHT31;67861;51.966;5.672;2023-03-23T08:16:09;15.4;64.4
78571;SHT31;67861;51.966;5.672;2023-03-23T08:18:39;15.3;64.7
78571;SHT31;67861;51.966;5.672;2023-03-23T08:21:10;15.3;64.7
78571;SHT31;67861;51.966;5.672;2023-03-23T08:23:40;15.3;65.0
78571;SHT31;67861;51.966;5.672;2023-03-23T08:26:12;15.3;64.8
78571;SHT31;67861;51.966;5.672;2023-03-23T08:28:42;15.3;64.8
78571;SHT31;67861;51.966;5.672;2023-03-23T08:31:14;15.3;64.9
78571;SHT31;67861;51.966;5.672;2023-03-23T08:33:44;15.3;64.8
78571;SHT31;67861;51.966;5.672;2023-03-23T08:36:15;15.3;65.4
78571;SHT31;67861;51.966;5.672;2023-03-23T08:38:45;15.3;65.6
78571;SHT31;67861;51.966;5.672;2023-03-23T08:41:15;15.3;64.9
78571;SHT31;67861;51.966;5.672;2023-03-23T08:43:45;15.3;64.5
78571;SHT31;67861;51.966;5.672;2023-03-23T08:46:15;15.3;64.0
78571;SHT31;67861;51.966;5.672;2023-03-23T08:48:47;15.3;63.2
78571;SHT31;67861;51.966;5.672;2023-03-23T08:51:16;15.3;63.1
78571;SHT31;67861;51.966;5.672;2023-03-23T08:53:46;15.3;63.8
78571;SHT31;67861;51.966;5.672;2023-03-23T08:56:16;15.3;63.4
78571;SHT31;67861;51.966;5.672;2023-03-23T08:58:45;15.3;63.2
78571;SHT31;67861;51.966;5.672;2023-03-23T09:01:16;15.3;63.5
78571;SHT31;67861;51.966;5.672;2023-03-23T09:03:46;15.3;63.2
78571;SHT31;67861;51.966;5.672;2023-03-23T09:06:16;15.4;62.8
78571;SHT31;67861;51.966;5.672;2023-03-23T09:08:45;15.4;62.8
78571;SHT31;67861;51.966;5.672;2023-03-23T09:11:16;15.4;62.5
78571;SHT31;67861;51.966;5.672;2023-03-23T09:13:46;15.4;61.3
78571;SHT31;67861;51.966;5.672;2023-03-23T09:16:15;15.4;62.1
78571;SHT31;67861;51.966;5.672;2023-03-23T09:18:45;15.4;60.9
78571;SHT31;67861;51.966;5.672;2023-03-23T09:21:17;15.4;60.7
78571;SHT31;67861;51.966;5.672;2023-03-23T09:23:49;15.4;61.8
78571;SHT31;67861;51.966;5.672;2023-03-23T09:26:19;15.4;62.1
78571;SHT31;67861;51.966;5.672;2023-03-23T09:28:48;15.4;61.9
78571;SHT31;67861;51.966;5.672;2023-03-23T09:31:19;15.5;62.6
78571;SHT31;67861;51.966;5.672;2023-03-23T09:33:49;15.5;61.1
78571;SHT31;67861;51.966;5.672;2023-03-23T09:36:20;15.6;61.5
78571;SHT31;67861;51.966;5.672;2023-03-23T09:38:50;15.6;60.4
78571;SHT31;67861;51.966;5.672;2023-03-23T09:41:43;15.7;60.9
78571;SHT31;67861;51.966;5.672;2023-03-23T09:44:22;15.7;59.8
78571;SHT31;67861;51.966;5.672;2023-03-23T09:47:00;15.7;60.4
78571;SHT31;67861;51.966;5.672;2023-03-23T09:49:40;15.8;60.4
78571;SHT31;67861;51.966;5.672;2023-03-23T09:52:14;15.9;60.7
78571;SHT31;67861;51.966;5.672;2023-03-23T09:54:49;15.9;59.9
78571;SHT31;67861;51.966;5.672;2023-03-23T09:57:26;16.0;59.0
78571;SHT31;67861;51.966;5.672;2023-03-23T10:00:02;16.1;58.8
78571;SHT31;67861;51.966;5.672;2023-03-23T10:02:38;16.1;58.8
78571;SHT31;67861;51.966;5.672;2023-03-23T10:05:22;16.2;59.8
78571;SHT31;67861;51.966;5.672;2023-03-23T10:07:53;16.3;59.5
78571;SHT31;67861;51.966;5.672;2023-03-23T10:10:29;16.4;59.0
78571;SHT31;67861;51.966;5.672;2023-03-23T10:13:06;16.5;58.4
78571;SHT31;67861;51.966;5.672;2023-03-23T10:15:40;16.7;57.0
78571;SHT31;67861;51.966;5.672;2023-03-23T10:18:19;16.8;56.6
78571;SHT31;67861;51.966;5.672;2023-03-23T10:20:56;16.9;57.0
78571;SHT31;67861;51.966;5.672;2023-03-23T10:23:44;17.0;57.6
78571;SHT31;67861;51.966;5.672;2023-03-23T10:26:26;17.2;56.9
78571;SHT31;67861;51.966;5.672;2023-03-23T10:29:01;17.3;55.7
78571;SHT31;67861;51.966;5.672;2023-03-23T10:31:38;17.4;55.4
78571;SHT31;67861;51.966;5.672;2023-03-23T10:34:12;17.5;54.9
78571;SHT31;67861;51.966;5.672;2023-03-23T10:36:55;17.7;54.7
78571;SHT31;67861;51.966;5.672;2023-03-23T10:39:30;17.8;54.7
78571;SHT31;67861;51.966;5.672;2023-03-23T10:42:02;17.9;54.3
78571;SHT31;67861;51.966;5.672;2023-03-23T10:44:36;18.0;53.3
78571;SHT31;67861;51.966;5.672;2023-03-23T10:47:08;18.0;52.5
78571;SHT31;67861;51.966;5.672;2023-03-23T10:49:47;18.1;52.2
78571;SHT31;67861;51.966;5.672;2023-03-23T10:52:26;18.1;50.7
78571;SHT31;67861;51.966;5.672;2023-03-23T10:55:07;18.1;51.7
78571;SHT31;67861;51.966;5.672;2023-03-23T10:57:35;18.2;49.7
78571;SHT31;67861;51.966;5.672;2023-03-23T11:00:14;18.2;50.1
78571;SHT31;67861;51.966;5.672;2023-03-23T11:02:43;18.2;49.1
78571;SHT31;67861;51.966;5.672;2023-03-23T11:05:19;18.3;49.5
78571;SHT31;67861;51.966;5.672;2023-03-23T11:07:56;18.3;51.2
78571;SHT31;67861;51.966;5.672;2023-03-23T11:10:33;18.3;52.5
78571;SHT31;67861;51.966;5.672;2023-03-23T11:13:03;18.4;51.6
78571;SHT31;67861;51.966;5.672;2023-03-23T11:15:40;18.5;50.4
78571;SHT31;67861;51.966;5.672;2023-03-23T11:18:20;18.6;50.6
78571;SHT31;67861;51.966;5.672;2023-03-23T11:20:58;18.7;49.7
78571;SHT31;67861;51.966;5.672;2023-03-23T11:23:32;18.7;49.1
78571;SHT31;67861;51.966;5.672;2023-03-23T11:26:12;18.8;49.6
78571;SHT31;67861;51.966;5.672;2023-03-23T11:28:48;18.8;49.5
78571;SHT31;67861;51.966;5.672;2023-03-23T11:31:29;18.8;49.6
78571;SHT31;67861;51.966;5.672;2023-03-23T11:34:02;18.8;48.9
78571;SHT31;67861;51.966;5.672;2023-03-23T11:36:36;18.8;48.2
78571;SHT31;67861;51.966;5.672;2023-03-23T11:39:22;18.8;48.0
78571;SHT31;67861;51.966;5.672;2023-03-23T11:41:52;18.7;48.7
78571;SHT31;67861;51.966;5.672;2023-03-23T11:44:34;18.7;49.6
78571;SHT31;67861;51.966;5.672;2023-03-23T11:47:20;18.7;49.9
78571;SHT31;67861;51.966;5.672;2023-03-23T11:49:52;18.7;49.2
78571;SHT31;67861;51.966;5.672;2023-03-23T11:52:32;18.7;49.5
78571;SHT31;67861;51.966;5.672;2023-03-23T11:55:12;18.7;48.4
78571;SHT31;67861;51.966;5.672;2023-03-23T11:57:43;18.7;47.7
78571;SHT31;67861;51.966;5.672;2023-03-23T12:00:18;18.7;47.5
78571;SHT31;67861;51.966;5.672;2023-03-23T12:02:59;18.7;47.0
78571;SHT31;67861;51.966;5.672;2023-03-23T12:05:44;18.7;47.1
78571;SHT31;67861;51.966;5.672;2023-03-23T12:08:28;18.7;47.0
78571;SHT31;67861;51.966;5.672;2023-03-23T12:11:05;18.7;47.5
78571;SHT31;67861;51.966;5.672;2023-03-23T12:13:51;18.7;47.8
78571;SHT31;67861;51.966;5.672;2023-03-23T12:16:36;18.7;47.7
78571;SHT31;67861;51.966;5.672;2023-03-23T12:19:23;18.7;48.0
78571;SHT31;67861;51.966;5.672;2023-03-23T12:22:03;18.7;47.9
78571;SHT31;67861;51.966;5.672;2023-03-23T12:24:45;18.7;49.8
78571;SHT31;67861;51.966;5.672;2023-03-23T12:27:25;18.7;50.3
78571;SHT31;67861;51.966;5.672;2023-03-23T12:30:04;18.6;50.8
78571;SHT31;67861;51.966;5.672;2023-03-23T12:32:42;18.6;51.5
78571;SHT31;67861;51.966;5.672;2023-03-23T12:35:22;18.6;51.6
78571;SHT31;67861;51.966;5.672;2023-03-23T12:38:21;18.5;52.4
78571;SHT31;67861;51.966;5.672;2023-03-23T12:40:59;18.4;52.8
78571;SHT31;67861;51.966;5.672;2023-03-23T12:43:37;18.2;53.5
78571;SHT31;67861;51.966;5.672;2023-03-23T12:46:27;18.1;54.6
78571;SHT31;67861;51.966;5.672;2023-03-23T12:49:01;17.9;55.5
78571;SHT31;67861;51.966;5.672;2023-03-23T12:51:51;17.8;55.7
78571;SHT31;67861;51.966;5.672;2023-03-23T12:54:27;17.7;56.5
78571;SHT31;67861;51.966;5.672;2023-03-23T12:57:05;17.6;57.4
78571;SHT31;67861;51.966;5.672;2023-03-23T12:59:43;17.5;57.4
78571;SHT31;67861;51.966;5.672;2023-03-23T13:02:20;17.5;58.2
78571;SHT31;67861;51.966;5.672;2023-03-23T13:04:58;17.4;57.3
78571;SHT31;67861;51.966;5.672;2023-03-23T13:07:35;17.4;55.7
78571;SHT31;67861;51.966;5.672;2023-03-23T13:10:17;17.3;55.3
78571;SHT31;67861;51.966;5.672;2023-03-23T13:12:51;17.3;55.5
78571;SHT31;67861;51.966;5.672;2023-03-23T13:15:33;17.2;55.7
78571;SHT31;67861;51.966;5.672;2023-03-23T13:18:14;17.2;57.6
78571;SHT31;67861;51.966;5.672;2023-03-23T13:21:01;17.2;56.5
78571;SHT31;67861;51.966;5.672;2023-03-23T13:23:38;17.2;56.5
78571;SHT31;67861;51.966;5.672;2023-03-23T13:26:12;17.3;57.2
78571;SHT31;67861;51.966;5.672;2023-03-23T13:28:55;17.4;57.9
78571;SHT31;67861;51.966;5.672;2023-03-23T13:31:28;17.4;58.8
78571;SHT31;67861;51.966;5.672;2023-03-23T13:34:03;17.5;57.6
78571;SHT31;67861;51.966;5.672;2023-03-23T13:36:38;17.6;58.2
78571;SHT31;67861;51.966;5.672;2023-03-23T13:39:18;17.7;56.7
78571;SHT31;67861;51.966;5.672;2023-03-23T13:42:02;17.8;55.5
78571;SHT31;67861;51.966;5.672;2023-03-23T13:44:43;17.9;55.2
78571;SHT31;67861;51.966;5.672;2023-03-23T13:47:28;17.9;55.0
78571;SHT31;67861;51.966;5.672;2023-03-23T13:50:00;18.0;55.0
78571;SHT31;67861;51.966;5.672;2023-03-23T13:52:46;18.0;55.0
78571;SHT31;67861;51.966;5.672;2023-03-23T13:55:39;18.0;54.4
78571;SHT31;67861;51.966;5.672;2023-03-23T13:58:25;18.0;54.2
78571;SHT31;67861;51.966;5.672;2023-03-23T14:01:11;18.0;54.8
78571;SHT31;67861;51.966;5.672;2023-03-23T14:03:46;18.0;55.7
78571;SHT31;67861;51.966;5.672;2023-03-23T14:06:21;18.0;55.0
78571;SHT31;67861;51.966;5.672;2023-03-23T14:08:54;18.0;54.3
78571;SHT31;67861;51.966;5.672;2023-03-23T14:11:27;18.0;54.8
78571;SHT31;67861;51.966;5.672;2023-03-23T14:14:05;18.0;55.6
78571;SHT31;67861;51.966;5.672;2023-03-23T14:16:43;18.0;56.3
78571;SHT31;67861;51.966;5.672;2023-03-23T14:19:19;17.9;56.4
78571;SHT31;67861;51.966;5.672;2023-03-23T14:21:53;17.9;56.4
78571;SHT31;67861;51.966;5.672;2023-03-23T14:24:25;17.9;56.2
78571;SHT31;67861;51.966;5.672;2023-03-23T14:27:10;17.9;55.6
78571;SHT31;67861;51.966;5.672;2023-03-23T14:29:41;17.8;56.1
78571;SHT31;67861;51.966;5.672;2023-03-23T14:32:16;17.8;55.8
78571;SHT31;67861;51.966;5.672;2023-03-23T14:34:51;17.8;55.8
78571;SHT31;67861;51.966;5.672;2023-03-23T14:37:22;17.8;55.8
78571;SHT31;67861;51.966;5.672;2023-03-23T14:39:56;17.8;55.0
78571;SHT31;67861;51.966;5.672;2023-03-23T14:42:29;17.8;55.4
78571;SHT31;67861;51.966;5.672;2023-03-23T14:45:02;17.8;55.2
78571;SHT31;67861;51.966;5.672;2023-03-23T14:47:37;17.9;55.5
78571;SHT31;67861;51.966;5.672;2023-03-23T14:50:23;17.9;54.4
78571;SHT31;67861;51.966;5.672;2023-03-23T14:52:55;18.0;55.1
78571;SHT31;67861;51.966;5.672;2023-03-23T14:55:26;18.0;55.0
78571;SHT31;67861;51.966;5.672;2023-03-23T14:58:11;18.1;54.5
78571;SHT31;67861;51.966;5.672;2023-03-23T15:00:48;18.1;54.0
78571;SHT31;67861;51.966;5.672;2023-03-23T15:03:19;18.2;53.7
78571;SHT31;67861;51.966;5.672;2023-03-23T15:05:52;18.3;53.2
78571;SHT31;67861;51.966;5.672;2023-03-23T15:08:27;18.3;52.3
78571;SHT31;67861;51.966;5.672;2023-03-23T15:11:04;18.3;51.9
78571;SHT31;67861;51.966;5.672;2023-03-23T15:13:41;18.4;52.0
78571;SHT31;67861;51.966;5.672;2023-03-23T15:16:19;18.4;52.1
78571;SHT31;67861;51.966;5.672;2023-03-23T15:18:53;18.4;51.5
78571;SHT31;67861;51.966;5.672;2023-03-23T15:21:29;18.5;51.5
78571;SHT31;67861;51.966;5.672;2023-03-23T15:24:17;18.5;51.6
78571;SHT31;67861;51.966;5.672;2023-03-23T15:26:44;18.5;51.2
78571;SHT31;67861;51.966;5.672;2023-03-23T15:29:17;18.5;51.0
78571;SHT31;67861;51.966;5.672;2023-03-23T15:31:50;18.6;50.7
78571;SHT31;67861;51.966;5.672;2023-03-23T15:34:25;18.6;50.2
78571;SHT31;67861;51.966;5.672;2023-03-23T15:37:01;18.6;50.2
78571;SHT31;67861;51.966;5.672;2023-03-23T15:39:32;18.6;50.3
78571;SHT31;67861;51.966;5.672;2023-03-23T15:42:05;18.6;50.4
78571;SHT31;67861;51.966;5.672;2023-03-23T15:44:35;18.6;50.5
78571;SHT31;67861;51.966;5.672;2023-03-23T15:47:18;18.6;50.6
78571;SHT31;67861;51.966;5.672;2023-03-23T15:50:04;18.6;50.6
78571;SHT31;67861;51.966;5.672;2023-03-23T15:52:34;18.6;50.9
78571;SHT31;67861;51.966;5.672;2023-03-23T15:55:21;18.6;51.7
78571;SHT31;67861;51.966;5.672;2023-03-23T15:57:52;18.6;51.5
78571;SHT31;67861;51.966;5.672;2023-03-23T16:00:25;18.7;51.6
78571;SHT31;67861;51.966;5.672;2023-03-23T16:02:59;18.7;52.1
78571;SHT31;67861;51.966;5.672;2023-03-23T16:05:29;18.7;51.8
78571;SHT31;67861;51.966;5.672;2023-03-23T16:08:00;18.7;51.2
78571;SHT31;67861;51.966;5.672;2023-03-23T16:10:33;18.7;51.5
78571;SHT31;67861;51.966;5.672;2023-03-23T16:13:03;18.7;51.4
78571;SHT31;67861;51.966;5.672;2023-03-23T16:15:33;18.8;50.8
78571;SHT31;67861;51.966;5.672;2023-03-23T16:18:04;18.8;50.3
78571;SHT31;67861;51.966;5.672;2023-03-23T16:20:33;18.8;50.0
78571;SHT31;67861;51.966;5.672;2023-03-23T16:23:03;18.8;49.6
78571;SHT31;67861;51.966;5.672;2023-03-23T16:25:32;18.7;49.3
78571;SHT31;67861;51.966;5.672;2023-03-23T16:28:03;18.7;49.6
78571;SHT31;67861;51.966;5.672;2023-03-23T16:30:34;18.7;49.6
78571;SHT31;67861;51.966;5.672;2023-03-23T16:33:06;18.6;50.1
78571;SHT31;67861;51.966;5.672;2023-03-23T16:35:36;18.6;50.0
78571;SHT31;67861;51.966;5.672;2023-03-23T16:38:12;18.6;50.1
78571;SHT31;67861;51.966;5.672;2023-03-23T16:40:44;18.5;50.4
78571;SHT31;67861;51.966;5.672;2023-03-23T16:43:14;18.5;50.5
78571;SHT31;67861;51.966;5.672;2023-03-23T16:45:45;18.5;50.1
78571;SHT31;67861;51.966;5.672;2023-03-23T16:48:16;18.4;50.2